Time;durP1;ratioP1;P1;durP2;ratioP2;P2;SDS_P1;SDS_P2;PMS_P1;PMS_P2;Temp;Humidity;BMP_temperature;BMP_pressure;BME280_temperature;BME280_humidity;BME280_pressure;Samples;Min_cycle;Max_cycle;Signal;HPM_P1;HPM_P2
2023/10/20 00:01:44;;;;;;;15.07;14.00;;;;;;;10.52;100.00;92413.75;5050166;28;20174;-82
2023/10/20 00:04:09;;;;;;;14.13;13.03;;;;;;;10.66;100.00;92413.84;5043289;28;20212;-84
2023/10/20 00:06:38;;;;;;;15.50;14.10;;;;;;;10.62;100.00;92408.41;5049194;28;20217;-84
2023/10/20 00:09:06;;;;;;;14.57;13.37;;;;;;;10.59;100.00;92408.19;5046854;28;20240;-84
2023/10/20 00:11:31;;;;;;;15.50;14.10;;;;;;;10.55;100.00;92410.56;5050371;28;20235;-85
2023/10/20 00:13:57;;;;;;;14.77;13.57;;;;;;;10.53;100.00;92410.09;5049699;28;20227;-85
2023/10/20 00:16:28;;;;;;;14.00;12.87;;;;;;;10.58;100.00;92402.22;5049095;28;20215;-84
2023/10/20 00:18:56;;;;;;;13.30;12.30;;;;;;;10.48;100.00;92384.06;5048752;28;20223;-84
2023/10/20 00:21:21;;;;;;;13.97;12.70;;;;;;;10.53;100.00;92383.22;5049903;28;20207;-86
2023/10/20 00:23:47;;;;;;;14.50;13.33;;;;;;;10.50;100.00;92389.00;5048281;28;20307;-85
2023/10/20 00:26:13;;;;;;;14.53;13.23;;;;;;;10.49;100.00;92374.41;5045368;28;20249;-81
2023/10/20 00:28:39;;;;;;;14.87;13.67;;;;;;;10.42;100.00;92389.63;5032881;28;20234;-84
2023/10/20 00:31:04;;;;;;;14.50;13.43;;;;;;;10.54;100.00;92387.38;5048489;28;20213;-84
2023/10/20 00:33:30;;;;;;;14.90;13.60;;;;;;;10.51;100.00;92388.72;5039933;28;20226;-85
2023/10/20 00:35:55;;;;;;;14.77;13.67;;;;;;;10.56;100.00;92387.88;5045868;28;20287;-84
2023/10/20 00:38:21;;;;;;;15.13;13.73;;;;;;;10.52;100.00;92382.44;5044157;28;20225;-84
2023/10/20 00:40:49;;;;;;;14.40;13.30;;;;;;;10.36;100.00;92364.69;5037777;28;20202;-81
2023/10/20 00:43:15;;;;;;;14.37;13.37;;;;;;;10.40;100.00;92374.25;5040294;28;20281;-84
2023/10/20 00:45:43;;;;;;;15.23;13.93;;;;;;;10.38;100.00;92360.72;5045062;28;20218;-84
2023/10/20 00:48:10;;;;;;;15.00;14.00;;;;;;;10.52;100.00;92372.00;5039758;28;20891;-83
2023/10/20 00:50:36;;;;;;;14.43;13.23;;;;;;;10.54;100.00;92366.47;5036535;28;20173;-83
2023/10/20 00:53:03;;;;;;;13.90;12.93;;;;;;;10.50;100.00;92362.91;5046101;28;20246;-83
2023/10/20 00:55:30;;;;;;;14.00;12.90;;;;;;;10.56;100.00;92354.72;5044181;28;20278;-84
2023/10/20 00:57:57;;;;;;;15.53;14.30;;;;;;;10.53;100.00;92363.13;5039453;28;20195;-84
2023/10/20 01:00:22;;;;;;;14.57;13.47;;;;;;;10.55;100.00;92360.97;5043451;28;20185;-84
2023/10/20 01:02:48;;;;;;;13.90;12.67;;;;;;;10.47;100.00;92363.47;5045505;28;20182;-83
2023/10/20 01:05:22;;;;;;;15.83;14.17;;;;;;;10.44;100.00;92375.25;5043482;28;20193;-81
2023/10/20 01:07:48;;;;;;;13.77;12.77;;;;;;;10.55;100.00;92374.03;5048204;28;20183;-84
2023/10/20 01:10:13;;;;;;;14.60;13.40;;;;;;;10.54;100.00;92375.09;5048404;28;20181;-84
2023/10/20 01:12:39;;;;;;;14.50;13.30;;;;;;;10.55;100.00;92362.84;5048892;28;20243;-80
2023/10/20 01:15:06;;;;;;;14.50;13.40;;;;;;;10.51;100.00;92362.63;5039978;28;20213;-84
2023/10/20 01:17:33;;;;;;;14.70;13.50;;;;;;;10.43;100.00;92359.88;5048575;28;20193;-84
2023/10/20 01:20:04;;;;;;;14.33;13.00;;;;;;;10.38;100.00;92358.09;5047599;28;20214;-84
2023/10/20 01:22:30;;;;;;;14.97;13.70;;;;;;;10.30;100.00;92347.53;5046462;28;20182;-84
2023/10/20 01:24:55;;;;;;;14.33;13.07;;;;;;;10.43;100.00;92363.25;5048533;28;20231;-83
2023/10/20 01:27:20;;;;;;;15.43;13.43;;;;;;;10.35;100.00;92366.50;5045036;28;20189;-84
2023/10/20 01:29:46;;;;;;;15.17;13.83;;;;;;;10.27;100.00;92359.31;5048270;28;20257;-84
2023/10/20 01:32:12;;;;;;;14.17;12.93;;;;;;;10.20;100.00;92351.06;5048994;28;20213;-84
2023/10/20 01:34:37;;;;;;;13.97;12.87;;;;;;;10.31;100.00;92354.31;5048416;28;20222;-85
2023/10/20 01:37:03;;;;;;;14.17;12.80;;;;;;;10.17;100.00;92351.63;5049886;28;20210;-84
2023/10/20 01:39:29;;;;;;;15.03;13.93;;;;;;;10.11;100.00;92342.31;5049997;28;20222;-84
2023/10/20 01:41:55;;;;;;;15.10;14.00;;;;;;;10.06;100.00;92331.13;5052751;28;20249;-85
2023/10/20 01:44:21;;;;;;;14.33;13.17;;;;;;;10.09;100.00;92328.00;5052388;28;20214;-85
2023/10/20 01:46:49;;;;;;;14.40;13.20;;;;;;;10.09;100.00;92328.78;5049571;28;20222;-84
2023/10/20 01:49:15;;;;;;;15.97;13.57;;;;;;;9.94;100.00;92313.31;5050972;28;20244;-84
2023/10/20 01:51:41;;;;;;;13.33;12.37;;;;;;;9.91;100.00;92332.13;5051701;28;20178;-84
2023/10/20 01:54:06;;;;;;;14.37;13.37;;;;;;;9.91;100.00;92306.06;5051884;28;20232;-84
2023/10/20 01:56:32;;;;;;;13.30;12.30;;;;;;;9.97;100.00;92328.41;5040029;28;20210;-84
2023/10/20 01:58:57;;;;;;;13.83;12.53;;;;;;;9.98;100.00;92323.97;5042649;28;20222;-83
2023/10/20 02:01:22;;;;;;;14.30;13.13;;;;;;;9.93;100.00;92337.81;5053473;28;20198;-84
2023/10/20 02:03:49;;;;;;;14.37;13.30;;;;;;;9.98;100.00;92340.38;5043779;28;20219;-84
2023/10/20 02:06:16;;;;;;;14.80;13.70;;;;;;;9.94;100.00;92339.41;5047260;28;20183;-85
2023/10/20 02:08:41;;;;;;;14.20;12.90;;;;;;;9.97;100.00;92351.09;5047915;28;20297;-84
2023/10/20 02:11:08;;;;;;;14.00;13.00;;;;;;;9.93;100.00;92345.66;5051452;28;20860;-80
2023/10/20 02:13:35;;;;;;;14.80;13.60;;;;;;;10.09;100.00;92356.69;5052014;28;20214;-83
2023/10/20 02:16:00;;;;;;;14.63;13.47;;;;;;;10.18;100.00;92362.84;5051757;28;20201;-84
2023/10/20 02:18:26;;;;;;;16.00;14.67;;;;;;;10.19;100.00;92357.34;5050034;28;20226;-84
2023/10/20 02:20:58;;;;;;;16.23;14.63;;;;;;;10.13;100.00;92344.66;5045337;28;20183;-81
2023/10/20 02:23:25;;;;;;;15.00;14.00;;;;;;;10.03;100.00;92348.13;5043229;28;20268;-84
2023/10/20 02:26:05;;;;;;;14.23;13.03;;;;;;;10.08;100.00;92331.66;5048776;28;20187;-83
2023/10/20 02:28:31;;;;;;;15.60;14.30;;;;;;;10.04;100.00;92313.16;5050378;28;20214;-85
2023/10/20 02:30:59;;;;;;;15.03;13.73;;;;;;;9.90;100.00;92332.41;5046081;28;20186;-84
2023/10/20 02:33:25;;;;;;;15.77;14.53;;;;;;;10.08;100.00;92336.88;5044138;28;20231;-84
2023/10/20 02:35:50;;;;;;;14.17;12.97;;;;;;;10.00;100.00;92343.47;5051677;28;20283;-84
2023/10/20 02:38:16;;;;;;;14.03;12.93;;;;;;;10.07;100.00;92337.94;5048559;28;20341;-84
2023/10/20 02:40:54;;;;;;;14.97;13.77;;;;;;;9.98;100.00;92355.25;5050851;28;20183;-83
2023/10/20 02:43:22;;;;;;;15.27;14.03;;;;;;;9.82;100.00;92344.25;5050920;28;20285;-83
2023/10/20 02:45:52;;;;;;;15.27;14.00;;;;;;;10.00;100.00;92351.31;5049880;28;20215;-84
2023/10/20 02:48:18;;;;;;;14.53;13.40;;;;;;;9.99;100.00;92341.94;5046262;28;20219;-84
2023/10/20 02:50:45;;;;;;;14.97;13.77;;;;;;;10.00;100.00;92343.47;5048752;28;20199;-84
2023/10/20 02:53:13;;;;;;;15.50;13.83;;;;;;;9.93;100.00;92343.03;5041236;28;20256;-84
2023/10/20 02:55:39;;;;;;;15.17;13.93;;;;;;;9.86;100.00;92340.00;5050699;28;20233;-84
2023/10/20 02:58:05;;;;;;;15.07;14.03;;;;;;;9.91;100.00;92342.56;5043723;28;20289;-84
2023/10/20 03:00:30;;;;;;;15.60;14.40;;;;;;;9.76;100.00;92327.09;5041512;28;20271;-83
2023/10/20 03:02:55;;;;;;;14.80;13.53;;;;;;;9.84;100.00;92334.28;5050712;28;20197;-85
2023/10/20 03:05:21;;;;;;;15.73;14.23;;;;;;;9.68;100.00;92335.56;5040244;28;20179;-84
2023/10/20 03:07:47;;;;;;;14.97;13.60;;;;;;;9.77;100.00;92344.31;5047738;28;20209;-79
2023/10/20 03:10:12;;;;;;;15.10;13.90;;;;;;;9.74;100.00;92334.44;5040272;28;20603;-84
2023/10/20 03:12:38;;;;;;;15.27;13.83;;;;;;;9.74;100.00;92334.44;5048830;28;20187;-85
2023/10/20 03:15:06;;;;;;;16.50;15.00;;;;;;;9.72;100.00;92320.91;5070223;28;20440;-84
2023/10/20 03:17:31;;;;;;;15.40;14.00;;;;;;;9.80;100.00;92317.69;5068536;28;20182;-84
2023/10/20 03:19:57;;;;;;;15.83;14.47;;;;;;;9.79;100.00;92310.88;5062155;28;20956;-84
2023/10/20 03:22:22;;;;;;;15.83;14.33;;;;;;;9.72;100.00;92298.22;5081393;28;20250;-84
2023/10/20 03:24:48;;;;;;;14.97;13.47;;;;;;;9.85;100.00;92315.00;5069994;28;20213;-84
2023/10/20 03:27:13;;;;;;;15.93;14.43;;;;;;;9.85;100.00;92322.03;5069717;28;20192;-84
2023/10/20 03:29:39;;;;;;;16.00;14.60;;;;;;;9.64;100.00;92321.53;5060439;28;20222;-84
2023/10/20 03:32:04;;;;;;;14.97;13.73;;;;;;;9.61;100.00;92304.63;5059404;28;20250;-84
2023/10/20 03:34:33;;;;;;;16.17;14.73;;;;;;;9.72;100.00;92321.69;5070475;28;20290;-84
2023/10/20 03:36:59;;;;;;;15.80;14.50;;;;;;;9.74;100.00;92301.31;5066938;28;20209;-83
2023/10/20 03:39:24;;;;;;;17.23;15.47;;;;;;;9.79;100.00;92303.06;5061286;28;20245;-85
2023/10/20 03:41:50;;;;;;;17.30;15.80;;;;;;;9.83;100.00;92311.91;5065198;28;20193;-82
2023/10/20 03:44:16;;;;;;;19.67;17.87;;;;;;;9.82;100.00;92323.41;5069254;28;20236;-83
2023/10/20 03:46:56;;;;;;;18.13;16.63;;;;;;;9.79;100.00;92310.88;5060980;28;20281;-83
2023/10/20 03:49:22;;;;;;;21.90;17.70;;;;;;;9.77;100.00;92313.78;5063456;28;20277;-82
2023/10/20 03:51:51;;;;;;;21.17;17.10;;;;;;;9.74;100.00;92301.31;5067931;28;20182;-83
2023/10/20 03:54:17;;;;;;;18.07;16.43;;;;;;;9.82;100.00;92306.97;5069667;28;20247;-84
2023/10/20 03:56:43;;;;;;;18.13;16.43;;;;;;;9.76;100.00;92294.00;5061057;28;20232;-81
2023/10/20 03:59:09;;;;;;;17.73;16.13;;;;;;;9.73;100.00;92289.34;5069268;28;20213;-83
2023/10/20 04:01:35;;;;;;;16.43;14.93;;;;;;;9.64;100.00;92279.81;5064985;28;20206;-84
2023/10/20 04:04:00;;;;;;;17.77;15.93;;;;;;;9.67;100.00;92276.66;5069576;28;20216;-85
2023/10/20 04:06:26;;;;;;;16.43;15.03;;;;;;;9.71;100.00;92288.09;5068861;28;20184;-84
2023/10/20 04:08:51;;;;;;;15.87;14.47;;;;;;;9.73;100.00;92281.53;5051547;28;20226;-84
2023/10/20 04:11:17;;;;;;;14.73;13.43;;;;;;;9.68;100.00;92288.66;5065398;28;20205;-83
2023/10/20 04:13:43;;;;;;;15.67;14.30;;;;;;;9.74;100.00;92283.06;5069624;28;20221;-86
2023/10/20 04:16:13;;;;;;;17.27;15.20;;;;;;;9.73;100.00;92296.38;5063649;28;20218;-84
2023/10/20 04:18:42;;;;;;;16.80;14.07;;;;;;;9.72;100.00;92294.84;5046598;28;20224;-83
2023/10/20 04:21:08;;;;;;;14.53;13.23;;;;;;;9.75;100.00;92300.28;5066121;28;20208;-84
2023/10/20 04:23:33;;;;;;;15.07;13.63;;;;;;;9.72;100.00;92298.22;5068592;28;20756;-84
2023/10/20 04:25:58;;;;;;;15.50;13.90;;;;;;;9.57;100.00;92282.00;5069562;28;20264;-82
2023/10/20 04:28:32;;;;;;;15.53;13.90;;;;;;;9.61;100.00;92296.81;5062577;28;20213;-84
2023/10/20 04:57:53;;;;;;;20.87;14.70;;;;;;;9.59;100.00;92285.88;5057894;28;20216;-83
2023/10/20 05:07:51;;;;;;;15.27;13.77;;;;;;;9.74;100.00;92313.59;5055073;28;20204;-83
2023/10/20 05:10:18;;;;;;;16.50;14.90;;;;;;;9.91;100.00;92313.88;5072376;28;20189;-83
2023/10/20 05:12:43;;;;;;;16.60;15.13;;;;;;;9.84;100.00;92310.84;5067792;28;20182;-83
2023/10/20 05:15:12;;;;;;;16.43;14.97;;;;;;;9.97;100.00;92306.75;5067992;28;20701;-84
2023/10/20 05:17:38;;;;;;;15.30;13.77;;;;;;;9.99;100.00;92312.47;5065979;28;20177;-83
2023/10/20 05:20:08;;;;;;;14.73;13.37;;;;;;;10.00;100.00;92291.31;5060573;28;20228;-84
2023/10/20 05:22:34;;;;;;;16.80;14.73;;;;;;;10.12;100.00;92309.97;5067971;28;20234;-84
2023/10/20 05:24:59;;;;;;;23.70;14.57;;;;;;;9.83;100.00;92280.63;5061848;28;20229;-84
2023/10/20 05:27:24;;;;;;;16.07;14.67;;;;;;;10.17;100.00;92320.31;5064422;28;20179;-84
2023/10/20 05:29:50;;;;;;;15.67;14.17;;;;;;;10.26;100.00;92326.44;5059643;28;20304;-79
2023/10/20 05:32:17;;;;;;;14.83;13.57;;;;;;;10.39;100.00;92336.19;5060821;28;20185;-84
2023/10/20 05:34:43;;;;;;;17.30;14.43;;;;;;;10.44;100.00;92338.72;5077182;28;20319;-83
2023/10/20 05:37:08;;;;;;;14.43;12.93;;;;;;;10.59;100.00;92346.31;5080971;28;20220;-84
2023/10/20 05:39:34;;;;;;;18.33;15.67;;;;;;;10.81;100.00;92358.78;5066290;28;20213;-84
2023/10/20 05:42:01;;;;;;;17.70;15.73;;;;;;;10.84;100.00;92348.53;5074924;28;20202;-79
2023/10/20 05:44:33;;;;;;;16.80;15.20;;;;;;;10.74;100.00;92351.28;5059418;28;20226;-84
2023/10/20 05:46:59;;;;;;;17.47;15.37;;;;;;;10.67;100.00;92348.28;5062563;28;20226;-84
2023/10/20 05:49:25;;;;;;;17.13;15.43;;;;;;;10.72;100.00;92360.47;5070811;28;20255;-83
2023/10/20 05:51:51;;;;;;;20.53;16.50;;;;;;;10.77;100.00;92337.66;5072992;28;20185;-83
2023/10/20 05:54:17;;;;;;;19.73;17.17;;;;;;;10.79;100.00;92351.22;5078183;28;20229;-84
2023/10/20 05:56:43;;;;;;;17.30;15.53;;;;;;;10.92;100.00;92363.56;5072928;28;20200;-84
2023/10/20 05:59:08;;;;;;;21.57;17.17;;;;;;;11.25;100.00;92356.47;5076712;28;20276;-84
2023/10/20 06:01:33;;;;;;;17.60;15.77;;;;;;;11.35;100.00;92353.66;5065385;28;20262;-84
2023/10/20 06:03:59;;;;;;;18.43;16.60;;;;;;;11.35;100.00;92349.22;5056741;28;20214;-83
2023/10/20 06:06:24;;;;;;;19.10;17.30;;;;;;;11.38;100.00;92346.03;5037752;28;20273;-84
2023/10/20 06:08:49;;;;;;;19.27;17.50;;;;;;;11.39;100.00;92352.78;5035919;28;20246;-84
2023/10/20 06:11:15;;;;;;;19.03;17.10;;;;;;;11.63;100.00;92346.63;5033484;28;20185;-84
2023/10/20 06:13:41;;;;;;;17.67;16.00;;;;;;;11.67;100.00;92355.47;5045900;28;20257;-85
2023/10/20 06:16:11;;;;;;;18.60;16.80;;;;;;;11.67;100.00;92366.72;5048238;28;20213;-84
2023/10/20 06:18:37;;;;;;;19.43;16.53;;;;;;;11.85;100.00;92360.59;5047579;28;20252;-81
2023/10/20 06:21:10;;;;;;;18.07;16.37;;;;;;;12.22;100.00;92357.72;5036991;28;20187;-84
2023/10/20 06:23:36;;;;;;;20.07;17.93;;;;;;;12.21;100.00;92358.03;5030417;28;20225;-83
2023/10/20 06:26:01;;;;;;;21.13;15.43;;;;;;;12.53;100.00;92363.06;5048719;28;20186;-84
2023/10/20 06:28:26;;;;;;;19.43;17.33;;;;;;;12.65;100.00;92371.19;5051001;28;20850;-84
2023/10/20 06:30:53;;;;;;;21.17;17.17;;;;;;;12.70;100.00;92373.72;5051216;28;20205;-84
2023/10/20 06:33:18;;;;;;;21.43;16.20;;;;;;;12.85;100.00;92382.00;5051516;28;20238;-84
2023/10/20 06:35:53;;;;;;;17.80;16.10;;;;;;;13.00;100.00;92365.16;5051139;28;20205;-82
2023/10/20 06:38:43;;;;;;;19.17;17.27;;;;;;;13.08;100.00;92374.94;5049569;28;20221;-83
2023/10/20 06:41:10;;;;;;;18.83;15.33;;;;;;;13.31;100.00;92352.84;5051816;28;20204;-84
2023/10/20 06:43:35;;;;;;;15.27;13.90;;;;;;;13.50;100.00;92361.28;5046773;28;20242;-85
2023/10/20 06:46:01;;;;;;;16.67;15.10;;;;;;;13.81;98.43;92361.25;5042097;28;20225;-82
2023/10/20 06:48:28;;;;;;;16.63;14.07;;;;;;;13.96;98.40;92368.72;5050803;28;20214;-86
2023/10/20 06:50:54;;;;;;;15.27;13.77;;;;;;;14.31;94.43;92362.50;5051654;28;20256;-85
2023/10/20 06:53:19;;;;;;;17.20;14.00;;;;;;;14.36;94.15;92378.91;5050748;28;20232;-85
2023/10/20 06:55:51;;;;;;;14.63;13.33;;;;;;;14.67;92.85;92386.66;5041603;28;20206;-85
2023/10/20 06:58:17;;;;;;;14.43;13.17;;;;;;;14.60;90.40;92352.16;5037274;28;20218;-86
2023/10/20 07:00:44;;;;;;;14.63;13.53;;;;;;;14.66;89.60;92400.09;5047759;28;20206;-85
2023/10/20 07:03:10;;;;;;;14.50;13.20;;;;;;;14.49;90.68;92390.31;5045543;28;20229;-83
2023/10/20 07:05:37;;;;;;;16.60;13.37;;;;;;;14.87;88.86;92377.38;5046353;28;20214;-85
2023/10/20 07:08:04;;;;;;;14.50;13.07;;;;;;;15.21;88.97;92399.16;5047880;28;20230;-85
2023/10/20 07:10:37;;;;;;;14.17;12.77;;;;;;;15.21;85.68;92382.59;5048793;28;20189;-80
2023/10/20 07:13:12;;;;;;;13.13;12.13;;;;;;;15.29;85.88;92400.22;5042825;28;20218;-85
2023/10/20 07:15:40;;;;;;;13.43;12.33;;;;;;;15.16;86.45;92385.41;5032991;28;20205;-85
2023/10/20 07:18:06;;;;;;;14.93;13.27;;;;;;;15.29;85.17;92369.44;5040810;28;20244;-84
2023/10/20 07:20:33;;;;;;;14.20;12.83;;;;;;;15.20;86.63;92375.81;5050878;28;20187;-86
2023/10/20 07:22:58;;;;;;;13.97;12.67;;;;;;;15.36;86.33;92380.25;5040085;28;20245;-85
2023/10/20 07:25:25;;;;;;;13.93;12.47;;;;;;;15.31;85.95;92366.50;5050955;28;20213;-82
2023/10/20 07:27:51;;;;;;;13.70;12.27;;;;;;;15.59;84.39;92388.75;5046286;28;20175;-85
2023/10/20 07:30:17;;;;;;;14.03;12.60;;;;;;;15.66;84.28;92389.03;5044044;28;20193;-84
2023/10/20 07:32:43;;;;;;;13.17;11.83;;;;;;;15.66;83.40;92386.41;5039606;28;20203;-85
2023/10/20 07:35:11;;;;;;;13.87;12.53;;;;;;;15.62;84.45;92390.75;5042010;28;20189;-80
2023/10/20 07:37:37;;;;;;;14.17;13.00;;;;;;;15.45;86.30;92396.84;5045336;28;20203;-84
2023/10/20 07:40:04;;;;;;;14.40;13.10;;;;;;;15.51;84.52;92397.44;5039897;28;20225;-85
2023/10/20 07:42:30;;;;;;;13.60;12.50;;;;;;;15.58;84.42;92395.88;5038717;28;20182;-86
2023/10/20 07:44:56;;;;;;;13.67;12.47;;;;;;;15.48;84.28;92413.84;5048040;28;20210;-85
2023/10/20 07:47:21;;;;;;;17.13;13.87;;;;;;;15.46;84.32;92397.59;5050378;28;20222;-84
2023/10/20 07:49:47;;;;;;;15.07;13.33;;;;;;;15.51;84.22;92408.75;5049603;28;20221;-85
2023/10/20 07:52:12;;;;;;;14.93;13.43;;;;;;;15.62;83.80;92403.91;5049097;28;20194;-85
2023/10/20 07:54:37;;;;;;;14.50;13.13;;;;;;;15.56;83.46;92395.44;5048379;28;20227;-86
2023/10/20 07:57:03;;;;;;;14.60;13.40;;;;;;;15.66;84.23;92395.06;5049941;28;20202;-83
2023/10/20 07:59:29;;;;;;;16.23;13.23;;;;;;;15.61;84.85;92392.59;5049750;28;20281;-84
2023/10/20 08:01:54;;;;;;;14.37;13.30;;;;;;;16.01;83.38;92401.00;5043490;28;20241;-85
2023/10/20 08:04:20;;;;;;;14.53;13.23;;;;;;;16.21;81.70;92402.94;5043588;28;20234;-85
2023/10/20 08:06:45;;;;;;;16.47;13.03;;;;;;;16.23;80.13;92413.94;5041864;28;21704;-84
2023/10/20 08:09:12;;;;;;;14.43;13.10;;;;;;;16.46;80.33;92396.78;5034755;28;20229;-83
2023/10/20 08:11:38;;;;;;;19.43;13.73;;;;;;;16.29;79.89;92410.03;5047898;28;20190;-83
2023/10/20 08:14:05;;;;;;;14.40;12.90;;;;;;;16.68;77.73;92393.06;5047020;28;20245;-84
2023/10/20 08:16:30;;;;;;;13.37;12.33;;;;;;;16.79;78.95;92387.13;5042366;28;20202;-84
2023/10/20 08:18:55;;;;;;;13.07;11.97;;;;;;;16.79;78.47;92387.13;5047914;28;20241;-85
2023/10/20 08:21:26;;;;;;;13.40;12.07;;;;;;;16.79;76.64;92388.97;5049361;28;20905;-81
2023/10/20 08:23:51;;;;;;;13.50;12.23;;;;;;;16.69;77.53;92394.63;5048696;28;20225;-85
2023/10/20 08:26:19;;;;;;;12.97;11.90;;;;;;;16.41;78.97;92396.16;5042342;28;20213;-84
2023/10/20 08:28:45;;;;;;;12.57;11.53;;;;;;;16.21;80.75;92413.47;5049059;28;20252;-84
2023/10/20 08:31:16;;;;;;;13.77;12.13;;;;;;;16.51;80.12;92414.28;5037617;28;20182;-82
2023/10/20 08:33:42;;;;;;;13.57;12.43;;;;;;;16.51;79.36;92391.34;5048805;28;20218;-84
2023/10/20 08:36:20;;;;;;;13.17;12.03;;;;;;;16.17;80.95;92402.03;5048677;28;20277;-83
2023/10/20 08:38:48;;;;;;;13.37;12.13;;;;;;;16.38;78.67;92389.66;5048966;28;20229;-84
2023/10/20 08:41:16;;;;;;;13.47;11.73;;;;;;;15.83;80.57;92399.50;5042320;28;20249;-83
2023/10/20 08:43:42;;;;;;;12.43;11.50;;;;;;;16.06;80.03;92388.41;5049011;28;20217;-84
2023/10/20 08:46:10;;;;;;;13.50;12.33;;;;;;;15.83;81.22;92373.19;5046456;28;20226;-83
2023/10/20 08:48:46;;;;;;;12.07;11.17;;;;;;;15.78;82.57;92387.28;5041765;28;20226;-83
2023/10/20 08:51:14;;;;;;;12.67;11.47;;;;;;;15.77;81.73;92369.19;5038022;28;20181;-83
2023/10/20 08:53:41;;;;;;;18.43;11.97;;;;;;;15.83;81.78;92383.72;5048908;28;20213;-83
2023/10/20 08:56:08;;;;;;;12.17;11.17;;;;;;;15.77;83.76;92384.97;5042113;28;20237;-84
2023/10/20 08:58:35;;;;;;;13.87;12.60;;;;;;;15.93;81.99;92380.75;5048587;28;20237;-84
2023/10/20 09:01:00;;;;;;;13.40;12.33;;;;;;;15.89;82.64;92396.38;5041949;28;20206;-84
2023/10/20 09:03:27;;;;;;;13.73;12.60;;;;;;;15.96;81.67;92396.69;5048696;28;20244;-83
2023/10/20 09:06:05;;;;;;;12.93;12.03;;;;;;;15.77;85.06;92385.75;5041737;28;20191;-79
2023/10/20 09:08:31;;;;;;;13.30;12.00;;;;;;;15.75;85.48;92392.44;5044691;28;20233;-83
2023/10/20 09:10:57;;;;;;;14.30;12.90;;;;;;;15.62;86.32;92382.88;5047199;28;20813;-84
2023/10/20 09:13:30;;;;;;;18.63;11.87;;;;;;;15.76;84.62;92378.97;5043217;28;20309;-83
2023/10/20 09:15:55;;;;;;;15.23;12.97;;;;;;;16.25;82.07;92388.03;5047512;28;20821;-84
2023/10/20 09:18:22;;;;;;;14.73;12.57;;;;;;;16.30;82.70;92379.16;5048648;28;20229;-84
2023/10/20 09:20:47;;;;;;;14.43;13.13;;;;;;;16.61;79.51;92376.97;5049105;28;20182;-81
2023/10/20 09:23:13;;;;;;;13.33;12.30;;;;;;;16.91;80.07;92375.84;5045032;28;20214;-84
2023/10/20 09:25:39;;;;;;;14.37;12.60;;;;;;;16.83;80.54;92380.09;5044383;28;20220;-83
2023/10/20 09:28:05;;;;;;;13.93;11.70;;;;;;;17.29;78.00;92371.19;5048524;28;20278;-83
2023/10/20 09:30:32;;;;;;;13.73;12.40;;;;;;;17.57;74.46;92357.09;5044995;28;20190;-85
2023/10/20 09:32:57;;;;;;;13.23;11.93;;;;;;;17.64;75.02;92356.56;5048599;28;20197;-83
2023/10/20 09:35:23;;;;;;;14.83;13.33;;;;;;;18.09;72.81;92351.22;5048730;28;20198;-83
2023/10/20 09:37:54;;;;;;;14.50;12.77;;;;;;;18.50;71.58;92362.38;5047416;28;20185;-84
2023/10/20 09:40:20;;;;;;;13.43;12.50;;;;;;;18.54;69.96;92342.09;5046270;28;20170;-83
2023/10/20 09:42:57;;;;;;;12.37;11.17;;;;;;;18.24;72.33;92337.38;5048235;28;20199;-83
2023/10/20 09:45:36;;;;;;;12.87;11.63;;;;;;;17.81;72.09;92337.09;5048443;28;20225;-83
2023/10/20 09:48:15;;;;;;;15.50;12.67;;;;;;;17.69;72.87;92337.09;5048130;28;20230;-81
2023/10/20 09:50:42;;;;;;;13.63;12.07;;;;;;;17.58;73.39;92342.03;5048704;28;20201;-83
2023/10/20 09:53:08;;;;;;;13.77;12.37;;;;;;;17.65;73.96;92346.78;5044686;28;20214;-84
2023/10/20 09:55:34;;;;;;;17.23;12.07;;;;;;;17.47;74.42;92352.25;5043130;28;20232;-82
2023/10/20 09:58:00;;;;;;;14.83;13.37;;;;;;;17.51;73.86;92337.28;5045622;28;20230;-84
2023/10/20 10:00:30;;;;;;;14.40;12.10;;;;;;;17.47;76.22;92346.97;5049869;28;20229;-80
2023/10/20 10:02:58;;;;;;;21.13;14.77;;;;;;;17.40;76.00;92349.31;5051444;28;20186;-82
2023/10/20 10:05:23;;;;;;;21.33;16.13;;;;;;;17.55;74.84;92354.03;5051286;28;20183;-83
2023/10/20 10:08:03;;;;;;;21.47;14.27;;;;;;;17.46;76.66;92353.31;5051902;28;20953;-83
2023/10/20 10:10:29;;;;;;;18.63;13.67;;;;;;;17.49;76.88;92342.13;5051954;28;20182;-79
2023/10/20 10:13:00;;;;;;;13.37;12.13;;;;;;;17.53;77.53;92334.31;5045265;28;20177;-83
2023/10/20 10:15:38;;;;;;;13.90;12.57;;;;;;;17.59;77.78;92328.50;5059413;28;20205;-80
2023/10/20 10:18:11;;;;;;;13.30;12.20;;;;;;;17.80;76.49;92312.59;5051458;28;20260;-84
2023/10/20 10:20:45;;;;;;;13.03;11.90;;;;;;;18.04;74.57;92322.41;5040577;28;20277;-83
2023/10/20 10:23:12;;;;;;;13.70;12.20;;;;;;;18.15;73.59;92315.56;5050421;28;20233;-83
2023/10/20 10:25:47;;;;;;;21.80;13.57;;;;;;;18.02;74.85;92328.00;5038290;28;20189;-83
2023/10/20 10:28:19;;;;;;;19.00;12.10;;;;;;;18.30;73.02;92318.31;5051334;28;20300;-84
2023/10/20 10:30:48;;;;;;;13.77;11.80;;;;;;;18.48;73.25;92313.56;5050786;28;20262;-83
2023/10/20 10:33:21;;;;;;;13.20;11.90;;;;;;;18.38;73.41;92309.50;5035653;28;20228;-83
2023/10/20 10:35:46;;;;;;;14.90;11.93;;;;;;;18.13;73.99;92309.84;5041852;28;20223;-84
2023/10/20 10:38:23;;;;;;;13.40;11.43;;;;;;;18.04;74.36;92301.25;5049051;28;20229;-83
2023/10/20 10:40:51;;;;;;;17.30;12.80;;;;;;;17.78;76.88;92301.56;5051673;28;20238;-83
2023/10/20 10:43:19;;;;;;;18.63;14.03;;;;;;;17.74;76.21;92302.56;5050100;28;20231;-84
2023/10/20 10:45:45;;;;;;;21.50;14.27;;;;;;;18.02;74.82;92293.66;5043887;28;20225;-83
2023/10/20 10:48:15;;;;;;;15.40;13.73;;;;;;;18.14;74.33;92300.81;5050612;28;20226;-80
2023/10/20 10:50:44;;;;;;;16.97;12.30;;;;;;;18.45;73.15;92301.00;5044003;28;20195;-82
2023/10/20 10:53:11;;;;;;;15.40;12.40;;;;;;;18.51;72.62;92289.88;5051561;28;20226;-83
2023/10/20 10:55:37;;;;;;;13.97;11.87;;;;;;;18.72;71.86;92285.19;5050973;28;20718;-83
2023/10/20 10:58:13;;;;;;;15.03;12.20;;;;;;;18.82;72.75;92305.09;5050742;28;20226;-83
2023/10/20 11:00:39;;;;;;;12.87;11.70;;;;;;;19.01;70.15;92311.31;5051390;28;20187;-84
2023/10/20 11:03:06;;;;;;;13.23;11.33;;;;;;;18.95;69.76;92310.03;5049796;28;20233;-79
2023/10/20 11:05:32;;;;;;;11.87;10.73;;;;;;;19.21;68.80;92299.00;5051079;28;20183;-83
2023/10/20 11:08:03;;;;;;;13.23;12.00;;;;;;;19.44;67.85;92304.53;5050331;28;20194;-84
2023/10/20 11:10:37;;;;;;;15.47;11.23;;;;;;;19.53;66.26;92284.75;5050874;28;20943;-82
2023/10/20 11:13:08;;;;;;;14.07;11.17;;;;;;;19.87;65.56;92292.00;5043790;28;20225;-81
2023/10/20 11:15:35;;;;;;;12.90;11.43;;;;;;;19.80;65.26;92291.06;5050442;28;20228;-84
2023/10/20 11:18:02;;;;;;;11.67;10.60;;;;;;;19.78;67.39;92293.28;5049531;28;20224;-84
2023/10/20 11:20:31;;;;;;;12.33;11.13;;;;;;;19.98;65.91;92265.75;5049575;28;20191;-83
2023/10/20 11:22:57;;;;;;;11.77;10.60;;;;;;;20.09;63.18;92278.16;5082146;28;20187;-84
2023/10/20 11:25:23;;;;;;;14.13;10.87;;;;;;;20.12;63.06;92290.72;5046741;28;20199;-83
2023/10/20 11:27:56;;;;;;;13.63;11.30;;;;;;;20.21;63.62;92296.63;5071869;28;20191;-83
2023/10/20 11:30:26;;;;;;;11.93;10.17;;;;;;;20.23;60.81;92304.22;5037570;28;20193;-83
2023/10/20 11:32:55;;;;;;;13.23;9.90;;;;;;;20.52;61.18;92301.84;5050560;28;20192;-83
2023/10/20 11:35:21;;;;;;;14.27;11.17;;;;;;;20.72;59.88;92285.97;5046716;28;20184;-85
2023/10/20 11:37:48;;;;;;;14.63;10.47;;;;;;;20.60;59.88;92282.31;5040836;28;20188;-82
2023/10/20 11:40:15;;;;;;;13.77;9.93;;;;;;;20.56;61.64;92278.81;5050652;28;20246;-84
2023/10/20 11:42:41;;;;;;;11.33;9.90;;;;;;;20.79;59.37;92272.84;5050396;28;20200;-81
2023/10/20 11:45:07;;;;;;;10.97;9.87;;;;;;;21.05;59.02;92280.97;5043214;28;20204;-84
2023/10/20 11:47:33;;;;;;;11.93;10.83;;;;;;;21.24;57.94;92280.94;5051147;28;20257;-83
2023/10/20 11:49:58;;;;;;;10.53;9.63;;;;;;;21.39;56.98;92275.53;5040601;28;20229;-84